26 września 2022

Czas Kod Pogoda Temp. Widoczność Sufit Wiatr METAR/SPECI
07:55
V
11 °C 10 km+ - 200° 200° 13 kt METAR EHGG 260555Z AUTO 20013KT 170V230 9999 DZ FEW015CB 11/09 Q1000 TEMPO 7000 RA
07:25
V
11 °C 10 km+ - 190° 190° 12 kt METAR EHGG 260525Z AUTO 19012KT 160V220 9999 DZRA NSC 11/09 Q1000 REDZ TEMPO 7000 RA
06:55
V
11 °C 10 km+ 3.900 ft 190° 190° 11 kt METAR EHGG 260455Z AUTO 19011KT 160V230 9999 DZ SCT035 BKN039 BKN044 11/09 Q1001 TEMPO 7000 RA
06:25
V
11 °C 10 km+ - 190° 190° 11 kt METAR EHGG 260425Z AUTO 19011KT 160V220 9999 NSC 11/10 Q1001 REDZ TEMPO 7000 RA
05:55
V
11 °C 10 km+ - 200° 200° 11 kt METAR EHGG 260355Z AUTO 20011KT 160V230 9999 -RA FEW015CB 11/10 Q1002 REDZRA TEMPO 7000 RA
05:25
V
11 °C 10 km+ - 200° 200° 11 kt METAR EHGG 260325Z AUTO 20011KT 170V230 9999 DZ FEW015CB 11/09 Q1002
04:55
V
11 °C 10 km+ 4.700 ft 210° 210° 10 kt METAR EHGG 260255Z AUTO 21010KT 9999 -RA FEW015CB SCT031 BKN047 11/09 Q1003
04:25
V
11 °C 10 km+ 4.800 ft 210° 210° 10 kt METAR EHGG 260225Z AUTO 21010KT 9999 +DZRA SCT035 OVC048 11/09 Q1004
03:55
V
11 °C 10 km+ - 210° 210° 10 kt METAR EHGG 260155Z AUTO 21010KT 170V230 9999 NSC 11/09 Q1004
03:25
V
11 °C 10 km+ - 200° 200° 10 kt METAR EHGG 260125Z AUTO 20010KT 9999 SCT047 11/09 Q1005
02:55
V
11 °C 10 km+ - 200° 200° 10 kt METAR EHGG 260055Z AUTO 20010KT 170V230 9999 NSC 11/09 Q1005
02:25
V
11 °C 10 km+ - 200° 200° 10 kt METAR EHGG 260025Z AUTO 20010KT 170V230 9999 NSC 11/09 Q1006
01:55
V
11 °C 10 km+ - 190° 190° 7 kt METAR EHGG 252355Z AUTO 19007KT 9999 NSC 11/09 Q1007
01:25
V
11 °C 10 km+ - 200° 200° 8 kt METAR EHGG 252325Z AUTO 20008KT 170V230 9999 NSC 11/09 Q1007
00:55
V
11 °C 10 km+ 4.300 ft 240° 240° 10 kt METAR EHGG 252255Z AUTO 24010KT 200V280 9999 -RA FEW025 BKN043 OVC048 11/09 Q1008
00:25
V
10 °C 10 km+ 4.600 ft 210° 210° 7 kt METAR EHGG 252225Z AUTO 21007KT 9999 FEW028 SCT041 BKN046 10/08 Q1008

25 września 2022

Czas Kod Pogoda Temp. Widoczność Sufit Wiatr METAR/SPECI
23:55
V
10 °C 10 km+ - 200° 200° 6 kt METAR EHGG 252155Z AUTO 20006KT 9999 FEW049 10/08 Q1009
23:25
V
7 °C 10 km+ - 210° 210° 4 kt METAR EHGG 252125Z AUTO 21004KT 9999 NSC 07/07 Q1009
22:55
V
8 °C 10 km+ - 210° 210° 6 kt METAR EHGG 252055Z AUTO 21006KT 9999 NSC 08/07 Q1009 NOSIG
22:25
V
7 °C 10 km+ - 210° 210° 5 kt METAR EHGG 252025Z AUTO 21005KT 9999 NSC 07/06 Q1010 NOSIG
21:55
V
8 °C 10 km+ - 220° 220° 5 kt METAR EHGG 251955Z AUTO 22005KT 9999 NSC 08/07 Q1010 NOSIG
21:25
V
8 °C 10 km+ - 220° 220° 4 kt METAR EHGG 251925Z AUTO 22004KT 9999 NSC 08/06 Q1010 NOSIG
20:55
V
8 °C 10 km+ - 210° 210° 5 kt METAR EHGG 251855Z AUTO 21005KT 9999 NSC 08/07 Q1011 NOSIG
20:25
V
9 °C 10 km+ - 220° 220° 4 kt METAR EHGG 251825Z AUTO 22004KT 9999 NSC 09/07 Q1011 NOSIG
19:55
V
11 °C 10 km+ - 230° 230° 2 kt METAR EHGG 251755Z AUTO 23002KT 9999 NSC 11/08 Q1011 NOSIG
19:25
V
13 °C 10 km+ - 270° 270° 3 kt METAR EHGG 251725Z AUTO 27003KT 250V310 9999 -RA NSC 13/08 Q1011 NOSIG
18:55
V
13 °C 10 km+ - 280° 280° 3 kt METAR EHGG 251655Z AUTO 28003KT 250V320 9999 NSC 13/08 Q1012 NOSIG
18:25
V
14 °C 10 km+ - 310° 310° 4 kt METAR EHGG 251625Z AUTO 31004KT 280V340 9999 NSC 14/08 Q1012 NOSIG
17:55
V
14 °C 10 km+ - 300° 300° 7 kt METAR EHGG 251555Z AUTO 30007KT 270V330 9999 NSC 14/07 Q1012 NOSIG
17:25
V
15 °C 10 km+ - 350° 350° 6 kt METAR EHGG 251525Z AUTO 35006KT 320V040 9999 NSC 15/08 Q1012 NOSIG
16:55
V
15 °C 10 km+ 4.900 ft 310° 310° 6 kt METAR EHGG 251455Z AUTO 31006KT 290V350 9999 SCT033 SCT038 BKN049 15/07 Q1012 NOSIG
16:25
V
15 °C 10 km+ - 310° 310° 4 kt METAR EHGG 251425Z AUTO 31004KT 270V350 9999 NSC 15/07 Q1013 NOSIG
15:55
V
16 °C 10 km+ - 350° 350° 5 kt METAR EHGG 251355Z AUTO 35005KT 290V030 9999 NSC 16/07 Q1013 NOSIG
15:25
V
16 °C 10 km+ - 330° 330° 7 kt METAR EHGG 251325Z AUTO 33007KT 280V030 9999 FEW031 16/08 Q1013 NOSIG
14:55
V
14 °C 10 km+ - 340° 340° 6 kt METAR EHGG 251255Z AUTO 34006KT 300V010 9999 SCT049 14/08 Q1013 NOSIG
14:25
V
16 °C 10 km+ - 350° 350° 6 kt METAR EHGG 251225Z AUTO 35006KT 300V030 9999 SCT030 SCT037 16/08 Q1014 NOSIG
13:55
V
14 °C 10 km+ - 340° 340° 4 kt METAR EHGG 251155Z AUTO 34004KT 300V360 9999 NCD 14/09 Q1014 TEMPO 7000 -SHRA FEW025CB
13:25
M
15 °C 10 km+ 2.400 ft 340° 340° 5 kt METAR EHGG 251125Z AUTO 34005KT 280V040 9999 SCT019 BKN024 15/10 Q1014 TEMPO 7000 -SHRA FEW025CB
12:55
V
14 °C 10 km+ - 310° 310° 3 kt METAR EHGG 251055Z AUTO 31003KT 260V010 9999 NSC 14/10 Q1014 TEMPO 7000 -SHRA FEW025CB
12:25
V
14 °C 10 km+ - 360° 360° 4 kt METAR EHGG 251025Z AUTO 36004KT 330V050 9999 NSC 14/10 Q1014 TEMPO 7000 -SHRA FEW025CB
11:55
V
13 °C 10 km+ - 330° 330° 4 kt METAR EHGG 250955Z AUTO 33004KT 290V010 9999 SCT048 13/10 Q1015 TEMPO 7000 -SHRA FEW025CB
11:25
V
12 °C 10 km+ - 350° 350° 5 kt METAR EHGG 250925Z AUTO 35005KT 310V030 9999 -SHRA FEW015CB SCT046 12/10 Q1015 RERA TEMPO 7000 -SHRA FEW025CB
10:55
V
14 °C 10 km+ 3.100 ft 290° 290° 9 kt METAR EHGG 250855Z AUTO 29009KT 250V320 9999 OVC031 14/10 Q1014 TEMPO 7000 -SHRA FEW025CB
10:25
V
14 °C 10 km+ - 310° 310° 3 kt METAR EHGG 250825Z AUTO 31003KT 270V360 9999 FEW030 SCT043 14/11 Q1014 TEMPO 7000 -SHRA FEW025CB
09:55
V
12 °C 10 km+ - 300° 300° 3 kt METAR EHGG 250755Z AUTO 30003KT 250V330 9999 FEW030 12/10 Q1014 TEMPO 7000 -SHRA FEW025CB
09:25
V
10 °C 10 km+ - 260° 260° 2 kt METAR EHGG 250725Z AUTO 26002KT 9999 NCD 10/09 Q1014 NOSIG
08:55
V
8 °C 10 km+ - 240° 240° 1 kt METAR EHGG 250655Z AUTO 24001KT 9999 NCD 08/08 Q1014 NOSIG
08:25
L
5 °C 450 m - 270° 270° 1 kt METAR EHGG 250625Z AUTO 27001KT 0450 R05/1500U FG NCD 05/05 Q1014 BECMG CAVOK
07:55
L
5 °C 350 m - 280° 280° 1 kt METAR EHGG 250555Z AUTO 28001KT 0350 R05/0400D FG NCD 05/05 Q1014 BECMG 9999 NSW FEW025
07:25
L
4 °C 300 m - 240° 240° 2 kt METAR EHGG 250525Z AUTO 24002KT 0300 R05/0450N FG NCD 04/03 Q1014 BECMG 9999 NSW FEW025
06:55
L
4 °C 450 m - Var Var 1 kt METAR EHGG 250455Z AUTO VRB01KT 0450 R05/0650D FG NCD 04/04 Q1014 TEMPO 6000 MIFG
06:25
I
5 °C 1,6 km - Var 000° 0 kt METAR EHGG 250425Z AUTO 00000KT 1600 BR FEW028 05/05 Q1014 TEMPO 6000 MIFG
05:55
L
4 °C 800 m 2.600 ft 310° 310° 1 kt METAR EHGG 250355Z AUTO 31001KT 0800 R05/1700U FG BKN026 BKN032 04/04 Q1015
05:25
L
4 °C 550 m - 300° 300° 1 kt METAR EHGG 250325Z AUTO 30001KT 0550 R05/0500D FG NCD 04/04 Q1014
04:55
L
4 °C 650 m - 280° 280° 1 kt METAR EHGG 250255Z AUTO 28001KT 0650 R05/1100U FG NCD 04/04 Q1015
04:25
L
4 °C 550 m - Var Var 2 kt METAR EHGG 250225Z AUTO VRB02KT 0550 R05/0600D FG NCD 04/03 Q1015
03:55
L
5 °C 500 m - 320° 320° 2 kt METAR EHGG 250155Z AUTO 32002KT 0500 R05/0650D FG NSC 05/04 Q1015
03:25
L
5 °C 500 m - 300° 300° 1 kt METAR EHGG 250125Z AUTO 30001KT 0500 R05/0650D FG NCD 05/05 Q1015
02:55
L
5 °C 650 m - 320° 320° 2 kt METAR EHGG 250055Z AUTO 32002KT 0650 R05/0800D FG NCD 05/04 Q1015
02:25
L
5 °C 650 m - 320° 320° 2 kt METAR EHGG 250025Z AUTO 32002KT 0650 R05/1400N FG NCD 05/05 Q1015
01:55
L
5 °C 750 m - 330° 330° 1 kt METAR EHGG 242355Z AUTO 33001KT 0750 R05/P2000U FG FEW027 SCT030 05/05 Q1015
01:25
L
5 °C 500 m - Var Var 1 kt METAR EHGG 242325Z AUTO VRB01KT 0500 R05/0700N FG NCD 05/05 Q1015
00:55
L
6 °C 650 m - 300° 300° 1 kt METAR EHGG 242255Z AUTO 30001KT 0650 R05/1500N FG NCD 06/05 Q1015
00:25
V
6 °C 10 km+ - 310° 310° 3 kt METAR EHGG 242225Z AUTO 31003KT 9999 NCD 06/06 Q1015

24 września 2022

Czas Kod Pogoda Temp. Widoczność Sufit Wiatr METAR/SPECI
23:55
V
6 °C 9 km - 310° 310° 3 kt METAR EHGG 242155Z AUTO 31003KT 9000 FEW023 SCT027 06/06 Q1015
23:25
L
6 °C 450 m - 310° 310° 2 kt METAR EHGG 242125Z AUTO 31002KT 0450 R05/1100U FG NCD 06/06 Q1015
22:55
V
8 °C 10 km+ - 340° 340° 3 kt METAR EHGG 242055Z AUTO 34003KT 320V020 9999 NCD 08/08 Q1015 NOSIG
22:25
V
9 °C 10 km+ - 330° 330° 4 kt METAR EHGG 242025Z AUTO 33004KT 9999 NCD 09/08 Q1015 NOSIG
21:55
V
10 °C 10 km+ - 330° 330° 5 kt METAR EHGG 241955Z AUTO 33005KT 9999 FEW027 10/08 Q1015 NOSIG
21:25
V
11 °C 10 km+ - 340° 340° 5 kt METAR EHGG 241925Z AUTO 34005KT 9999 NCD 11/09 Q1015 NOSIG
20:55
V
12 °C 10 km+ - 350° 350° 5 kt METAR EHGG 241855Z AUTO 35005KT 310V010 9999 NCD 12/09 Q1014 NOSIG
20:25
V
13 °C 10 km+ - 350° 350° 6 kt METAR EHGG 241825Z AUTO 35006KT 320V030 9999 NSC 13/10 Q1014 NOSIG
19:55
V
13 °C 10 km+ - 350° 350° 7 kt METAR EHGG 241755Z AUTO 35007KT 310V020 9999 NSC 13/10 Q1014 NOSIG
19:25
V
13 °C 10 km+ 4.900 ft 350° 350° 5 kt METAR EHGG 241725Z AUTO 35005KT 310V030 9999 FEW026 OVC049 13/11 Q1014 NOSIG
18:55
V
13 °C 10 km+ 4.700 ft 020° 020° 3 kt METAR EHGG 241655Z AUTO 02003KT 350V050 9999 SCT043 OVC047 13/12 Q1014 NOSIG
18:25
V
13 °C 10 km+ 3.900 ft 360° 360° 4 kt METAR EHGG 241625Z AUTO 36004KT 320V040 9999 FEW022 OVC039 13/12 Q1013 REDZ NOSIG
17:55
I
13 °C 4,2 km 2.200 ft 010° 010° 4 kt METAR EHGG 241555Z AUTO 01004KT 330V060 4200 -RA FEW011 SCT017 OVC022 13/12 Q1013 REDZRA TEMPO 4000 DZRA BKN014
17:25
M
13 °C 6 km 2.100 ft 010° 010° 7 kt METAR EHGG 241525Z AUTO 01007KT 330V050 6000 -SHRA +DZ FEW012/// SCT016/// BKN021/// 13/11 Q1013 RERADZ TEMPO 4000 DZRA BKN014
16:55
M
13 °C 10 km+ 2.800 ft 010° 010° 7 kt METAR EHGG 241455Z AUTO 01007KT 320V050 9999 SCT024 OVC028 13/11 Q1013 NOSIG
16:25
M
13 °C 10 km+ 1.300 ft 020° 020° 8 kt METAR EHGG 241425Z AUTO 02008KT 340V060 9999 FEW006 BKN013 BKN015 13/12 Q1013 REDZ TEMPO 7000 DZRA BKN013
15:55
M
14 °C 9 km 2.800 ft 350° 350° 8 kt METAR EHGG 241355Z AUTO 35008KT 310V020 9000 -DZ OVC028 14/12 Q1013 REDZ TEMPO 4000 DZRA BKN013
15:25
M
14 °C 10 km+ 1.400 ft 360° 360° 9 kt METAR EHGG 241325Z AUTO 36009KT 310V040 9999 -RA FEW006/// BKN014/// OVC016/// 14/11 Q1013 BECMG BKN016 TEMPO 7000 RADZ
14:55
M
14 °C 10 km+ 1.500 ft 010° 010° 8 kt METAR EHGG 241255Z AUTO 01008KT 320V050 9999 -RA OVC015 14/11 Q1013 NOSIG
14:25
M
14 °C 10 km+ 1.500 ft 360° 360° 6 kt METAR EHGG 241225Z AUTO 36006KT 310V040 9999 BKN015 OVC020 14/12 Q1013 NOSIG
13:55
M
14 °C 10 km+ 1.600 ft 360° 360° 7 kt METAR EHGG 241155Z AUTO 36007KT 310V040 9999 FEW014 BKN016 OVC019 14/11 Q1013 NOSIG
13:25
M
15 °C 10 km+ 1.500 ft 360° 360° 8 kt METAR EHGG 241125Z AUTO 36008KT 330V050 9999 BKN015 OVC019 15/11 Q1013 NOSIG
12:55
M
15 °C 10 km+ 2.000 ft 350° 350° 9 kt METAR EHGG 241055Z AUTO 35009KT 300V040 9999 FEW016 OVC020 15/11 Q1012 NOSIG
12:25
M
14 °C 10 km+ 2.300 ft 360° 360° 10 kt METAR EHGG 241025Z AUTO 36010KT 330V050 9999 SCT019 OVC023 14/11 Q1012 NOSIG
11:55
M
14 °C 10 km+ 1.500 ft 360° 360° 11 kt METAR EHGG 240955Z AUTO 36011KT 320V050 9999 SCT012 BKN015 OVC018 14/12 Q1012 NOSIG
11:25
M
14 °C 10 km+ 1.400 ft 360° 360° 8 kt METAR EHGG 240925Z AUTO 36008KT 320V030 9999 BKN014 OVC016 14/12 Q1012 BECMG BKN030
10:55
M
14 °C 10 km+ 1.400 ft 350° 350° 7 kt METAR EHGG 240855Z AUTO 35007KT 310V040 9999 SCT012 BKN014 BKN017 14/12 Q1012 NOSIG
10:25
M
14 °C 10 km+ 2.000 ft 350° 350° 7 kt METAR EHGG 240825Z AUTO 35007KT 320V030 9999 FEW014 OVC020 14/11 Q1012 NOSIG
09:55
M
14 °C 10 km+ 1.500 ft 350° 350° 8 kt METAR EHGG 240755Z AUTO 35008KT 310V030 9999 FEW013 BKN015 OVC019 14/12 Q1012 NOSIG
09:25
M
14 °C 10 km+ 1.500 ft 350° 350° 8 kt METAR EHGG 240725Z AUTO 35008KT 310V040 9999 FEW013 BKN015 OVC038 14/12 Q1011 NOSIG
08:55
V
14 °C 10 km+ 3.900 ft 360° 360° 7 kt METAR EHGG 240655Z AUTO 36007KT 320V030 9999 BKN039 14/12 Q1011 NOSIG
08:25
M
13 °C 10 km+ 1.400 ft 350° 350° 3 kt METAR EHGG 240625Z AUTO 35003KT 310V050 9999 FEW010 BKN014 OVC016 13/12 Q1011 BECMG BKN030
07:55
M
13 °C 10 km+ 1.700 ft 020° 020° 5 kt METAR EHGG 240555Z AUTO 02005KT 340V060 9999 SCT011 SCT014 OVC017 13/12 Q1011 BECMG 9999
07:25
M
13 °C 6 km 1.000 ft 340° 340° 3 kt METAR EHGG 240525Z AUTO 34003KT 300V030 6000 FEW009 OVC010 13/13 Q1011 BECMG 9999 NSW SCT020
06:55
I
13 °C 2 km 600 ft Var Var 2 kt METAR EHGG 240455Z AUTO VRB02KT 2000 BR SCT005 BKN006 BKN008 FEW015CB 13/13 Q1011 REDZ BECMG 9999 NSW SCT020
06:25
L
13 °C 1,3 km 400 ft 200° 200° 3 kt METAR EHGG 240425Z AUTO 20003KT 170V230 1300 R23/1900N RA SCT003 BKN004 BKN006 FEW015CB 13/13 Q1011 BECMG 9999 NSW SCT020
05:55
L
13 °C 1,4 km 300 ft 210° 210° 2 kt METAR EHGG 240355Z AUTO 21002KT 1400 R23/1900N RA BKN003 BKN004 FEW015CB 13/13 Q1011
05:25
I
13 °C 1,9 km 500 ft 260° 260° 3 kt METAR EHGG 240325Z AUTO 26003KT 1900 -SHRA SCT004 BKN005 BKN010 FEW015CB 13/13 Q1011 RERADZ
04:55
I
13 °C 2,6 km 1.100 ft 220° 220° 6 kt METAR EHGG 240255Z AUTO 22006KT 2600 -RADZ BKN011 FEW015CB 13/13 Q1011
Starsze dane

My i osoby trzecie śledzimy twoje zachowanie w internecie na naszej stronie za pomocą plików cookie. Jeśli kontynuujesz, zakładamy, że zgadzasz się z naszą polityką plików cookie. Dowiedz się więcej